Udo Maru — JM6522 — position and weather

sailwx.info

Track history (hours):
 
Tides and Currents Weather Stations Pressure Air Temp Water Temp Dewpoint Dewpoint Depression Visibility Wind Speed Wind Dir Waves Ship Positions

Udo Maru

Last reported at 2015-Jul-25 00:33 UTC. Time now 2015-Jul-28 17:43 UTC.
Position N 34°36' E 134°53'.

Length 87 m; draft 4.9 m.

Type: Ship (hazmat cat A). MMSI: 431600499.

Date/timePositionNaut miles runAvg speedWind from/ knotsBaromVisibWave heightAir tempDewpointWater temp
2015-Jul-25 00:33N 34°36' E 134°53'10 9.6
2015-Jul-24 23:33N 34°36' E 135°05'1212.1
2015-Jul-24 22:33N 34°36' E 135°19'4 0.3
2015-Jul-24 09:33N 34°36' E 135°24'1 1.0
2015-Jul-24 08:31N 34°36' E 135°23'0 0.1
2015-Jul-24 07:25N 34°36' E 135°23'8 9.3
2015-Jul-24 06:33N 34°35' E 135°13'1111.5
2015-Jul-24 05:33N 34°37' E 134°59'1110.5
2015-Jul-24 04:32N 34°41' E 134°47'  
2015-Jul-19 12:30N 34°37' E 134°55'1010.2
2015-Jul-19 11:33N 34°31' E 135°04'1312.7
2015-Jul-19 10:33N 34°19' E 134°60'1312.3
2015-Jul-19 09:32N 34°07' E 134°60'233 8.6
2015-Jul-18 06:33N 35°00' E 139°35'1010.0
2015-Jul-18 05:34N 35°07' E 139°43'10 9.7
2015-Jul-18 04:33N 35°17' E 139°45'9 8.6
2015-Jul-18 03:33N 35°26' E 139°46'5 4.8
2015-Jul-18 02:33N 35°22' E 139°49'0 0.0
2015-Jul-18 01:33N 35°22' E 139°49'0 0.0
2015-Jul-18 00:34N 35°22' E 139°49'0 0.0
2015-Jul-17 23:32N 35°22' E 139°49'0 0.1
2015-Jul-17 22:33N 35°22' E 139°49'0 0.0
2015-Jul-17 21:33N 35°22' E 139°49'0 0.0
2015-Jul-17 20:33N 35°22' E 139°49'0 0.0
2015-Jul-17 19:33N 35°22' E 139°49'0 0.0
2015-Jul-17 18:32N 35°22' E 139°49'0 0.0
2015-Jul-17 17:30N 35°22' E 139°49'0 0.0
2015-Jul-17 16:31N 35°22' E 139°49'0 0.1
2015-Jul-17 15:33N 35°22' E 139°49'0 0.0
2015-Jul-17 14:33N 35°22' E 139°49'0 0.0
2015-Jul-17 13:32N 35°22' E 139°49'0 0.1
2015-Jul-17 12:33N 35°22' E 139°49'0 0.1
2015-Jul-17 11:33N 35°22' E 139°49'0 0.0
2015-Jul-17 10:32N 35°22' E 139°49'0 0.0
2015-Jul-17 09:33N 35°22' E 139°49'0 0.0
2015-Jul-17 08:33N 35°22' E 139°49'0 0.0
2015-Jul-17 07:33N 35°22' E 139°49'0 0.0
2015-Jul-17 06:33N 35°22' E 139°49'0 0.0
2015-Jul-17 05:32N 35°22' E 139°49'0 0.0
2015-Jul-17 04:31N 35°22' E 139°49'0 0.0
2015-Jul-17 03:31N 35°22' E 139°49'0 0.0
2015-Jul-17 02:31N 35°22' E 139°49'0 0.1
2015-Jul-17 01:33N 35°22' E 139°49'0 0.0
2015-Jul-17 00:32N 35°22' E 139°49'0 0.0
2015-Jul-16 23:33N 35°22' E 139°49'0 0.0
2015-Jul-16 22:34N 35°22' E 139°49'0 0.0
2015-Jul-16 21:32N 35°22' E 139°49'0 0.1
2015-Jul-16 20:32N 35°22' E 139°49'0 0.0
2015-Jul-16 19:31N 35°22' E 139°49'0 0.1
2015-Jul-16 18:32N 35°22' E 139°49'0 0.0
2015-Jul-16 17:33N 35°22' E 139°49'0 0.0
2015-Jul-16 16:33N 35°22' E 139°49'0 0.0
2015-Jul-16 15:33N 35°22' E 139°49'0 0.0
2015-Jul-16 14:33N 35°22' E 139°49'0 0.0
2015-Jul-16 13:31N 35°22' E 139°49'0 0.1
2015-Jul-16 12:33N 35°22' E 139°49'0 0.0
2015-Jul-16 11:33N 35°22' E 139°49'0 0.0
2015-Jul-16 10:33N 35°22' E 139°49'0 0.0
2015-Jul-16 09:33N 35°22' E 139°49'0 0.1
2015-Jul-16 08:33N 35°22' E 139°49'0 0.0
2015-Jul-16 07:33N 35°22' E 139°49'0 0.0
2015-Jul-16 06:33N 35°22' E 139°49'0 0.1
2015-Jul-16 05:33N 35°22' E 139°49'0 0.0
2015-Jul-16 04:34N 35°22' E 139°49'0 0.0
2015-Jul-16 03:33N 35°22' E 139°49'0 0.0
2015-Jul-16 02:33N 35°22' E 139°49'0 0.0
2015-Jul-16 01:30N 35°22' E 139°49'0 0.0
2015-Jul-16 00:33N 35°22' E 139°49'0 0.0
2015-Jul-15 23:33N 35°22' E 139°49'0 0.0
2015-Jul-15 22:30N 35°22' E 139°49'0 0.1
2015-Jul-15 21:33N 35°22' E 139°49'0 0.1
2015-Jul-15 20:33N 35°22' E 139°49'2 0.7
2015-Jul-15 18:24N 35°22' E 139°51'0 0.0
2015-Jul-15 17:33N 35°22' E 139°51'0 0.0
2015-Jul-15 16:33N 35°22' E 139°51'0 0.0
2015-Jul-15 15:33N 35°22' E 139°51'0 0.0
2015-Jul-15 14:33N 35°22' E 139°51'0 0.0
2015-Jul-15 13:33N 35°22' E 139°51'0 0.1
2015-Jul-15 12:33N 35°21' E 139°51'1 1.3
2015-Jul-15 11:28N 35°22' E 139°49'0 0.0
2015-Jul-15 10:31N 35°22' E 139°49'0 0.0
2015-Jul-15 09:31N 35°22' E 139°49'0 0.0
2015-Jul-15 08:28N 35°22' E 139°49'0 0.0
2015-Jul-15 07:31N 35°22' E 139°49'0 0.0
2015-Jul-15 06:31N 35°22' E 139°49'0 0.0
2015-Jul-15 05:31N 35°22' E 139°49'0 0.0
2015-Jul-15 04:31N 35°22' E 139°49'0 0.0
2015-Jul-15 03:31N 35°22' E 139°49'0 0.0
2015-Jul-15 02:28N 35°22' E 139°49'0 0.0
2015-Jul-15 01:28N 35°22' E 139°49'  
Track history (hours):
 
Tides and Currents Weather Stations Pressure Air Temp Water Temp Dewpoint Dewpoint Depression Visibility Wind Speed Wind Dir Waves Ship Positions

Udo Maru

Last reported at 2015-Jul-25 00:33 UTC. Time now 2015-Jul-28 17:43 UTC.
Position N 34°36' E 134°53'.

Length 87 m; draft 4.9 m.

Type: Ship (hazmat cat A). MMSI: 431600499.

Date/timePositionNaut miles runAvg speedWind from/ knotsBaromVisibWave heightAir tempDewpointWater temp
2015-Jul-25 00:33N 34°36' E 134°53'10 9.6
2015-Jul-24 23:33N 34°36' E 135°05'1212.1
2015-Jul-24 22:33N 34°36' E 135°19'4 0.3
2015-Jul-24 09:33N 34°36' E 135°24'1 1.0
2015-Jul-24 08:31N 34°36' E 135°23'0 0.1
2015-Jul-24 07:25N 34°36' E 135°23'8 9.3
2015-Jul-24 06:33N 34°35' E 135°13'1111.5
2015-Jul-24 05:33N 34°37' E 134°59'1110.5
2015-Jul-24 04:32N 34°41' E 134°47'  
2015-Jul-19 12:30N 34°37' E 134°55'1010.2
2015-Jul-19 11:33N 34°31' E 135°04'1312.7
2015-Jul-19 10:33N 34°19' E 134°60'1312.3
2015-Jul-19 09:32N 34°07' E 134°60'233 8.6
2015-Jul-18 06:33N 35°00' E 139°35'1010.0
2015-Jul-18 05:34N 35°07' E 139°43'10 9.7
2015-Jul-18 04:33N 35°17' E 139°45'9 8.6
2015-Jul-18 03:33N 35°26' E 139°46'5 4.8
2015-Jul-18 02:33N 35°22' E 139°49'0 0.0
2015-Jul-18 01:33N 35°22' E 139°49'0 0.0
2015-Jul-18 00:34N 35°22' E 139°49'0 0.0
2015-Jul-17 23:32N 35°22' E 139°49'0 0.1
2015-Jul-17 22:33N 35°22' E 139°49'0 0.0
2015-Jul-17 21:33N 35°22' E 139°49'0 0.0
2015-Jul-17 20:33N 35°22' E 139°49'0 0.0
2015-Jul-17 19:33N 35°22' E 139°49'0 0.0
2015-Jul-17 18:32N 35°22' E 139°49'0 0.0
2015-Jul-17 17:30N 35°22' E 139°49'0 0.0
2015-Jul-17 16:31N 35°22' E 139°49'0 0.1
2015-Jul-17 15:33N 35°22' E 139°49'0 0.0
2015-Jul-17 14:33N 35°22' E 139°49'0 0.0
2015-Jul-17 13:32N 35°22' E 139°49'0 0.1
2015-Jul-17 12:33N 35°22' E 139°49'0 0.1
2015-Jul-17 11:33N 35°22' E 139°49'0 0.0
2015-Jul-17 10:32N 35°22' E 139°49'0 0.0
2015-Jul-17 09:33N 35°22' E 139°49'0 0.0
2015-Jul-17 08:33N 35°22' E 139°49'0 0.0
2015-Jul-17 07:33N 35°22' E 139°49'0 0.0
2015-Jul-17 06:33N 35°22' E 139°49'0 0.0
2015-Jul-17 05:32N 35°22' E 139°49'0 0.0
2015-Jul-17 04:31N 35°22' E 139°49'0 0.0
2015-Jul-17 03:31N 35°22' E 139°49'0 0.0
2015-Jul-17 02:31N 35°22' E 139°49'0 0.1
2015-Jul-17 01:33N 35°22' E 139°49'0 0.0
2015-Jul-17 00:32N 35°22' E 139°49'0 0.0
2015-Jul-16 23:33N 35°22' E 139°49'0 0.0
2015-Jul-16 22:34N 35°22' E 139°49'0 0.0
2015-Jul-16 21:32N 35°22' E 139°49'0 0.1
2015-Jul-16 20:32N 35°22' E 139°49'0 0.0
2015-Jul-16 19:31N 35°22' E 139°49'0 0.1
2015-Jul-16 18:32N 35°22' E 139°49'0 0.0
2015-Jul-16 17:33N 35°22' E 139°49'0 0.0
2015-Jul-16 16:33N 35°22' E 139°49'0 0.0
2015-Jul-16 15:33N 35°22' E 139°49'0 0.0
2015-Jul-16 14:33N 35°22' E 139°49'0 0.0
2015-Jul-16 13:31N 35°22' E 139°49'0 0.1
2015-Jul-16 12:33N 35°22' E 139°49'0 0.0
2015-Jul-16 11:33N 35°22' E 139°49'0 0.0
2015-Jul-16 10:33N 35°22' E 139°49'0 0.0
2015-Jul-16 09:33N 35°22' E 139°49'0 0.1
2015-Jul-16 08:33N 35°22' E 139°49'0 0.0
2015-Jul-16 07:33N 35°22' E 139°49'0 0.0
2015-Jul-16 06:33N 35°22' E 139°49'0 0.1
2015-Jul-16 05:33N 35°22' E 139°49'0 0.0
2015-Jul-16 04:34N 35°22' E 139°49'0 0.0
2015-Jul-16 03:33N 35°22' E 139°49'0 0.0
2015-Jul-16 02:33N 35°22' E 139°49'0 0.0
2015-Jul-16 01:30N 35°22' E 139°49'0 0.0
2015-Jul-16 00:33N 35°22' E 139°49'0 0.0
2015-Jul-15 23:33N 35°22' E 139°49'0 0.0
2015-Jul-15 22:30N 35°22' E 139°49'0 0.1
2015-Jul-15 21:33N 35°22' E 139°49'0 0.1
2015-Jul-15 20:33N 35°22' E 139°49'2 0.7
2015-Jul-15 18:24N 35°22' E 139°51'0 0.0
2015-Jul-15 17:33N 35°22' E 139°51'0 0.0
2015-Jul-15 16:33N 35°22' E 139°51'0 0.0
2015-Jul-15 15:33N 35°22' E 139°51'0 0.0
2015-Jul-15 14:33N 35°22' E 139°51'0 0.0
2015-Jul-15 13:33N 35°22' E 139°51'0 0.1
2015-Jul-15 12:33N 35°21' E 139°51'1 1.3
2015-Jul-15 11:28N 35°22' E 139°49'0 0.0
2015-Jul-15 10:31N 35°22' E 139°49'0 0.0
2015-Jul-15 09:31N 35°22' E 139°49'0 0.0
2015-Jul-15 08:28N 35°22' E 139°49'0 0.0
2015-Jul-15 07:31N 35°22' E 139°49'0 0.0
2015-Jul-15 06:31N 35°22' E 139°49'0 0.0
2015-Jul-15 05:31N 35°22' E 139°49'0 0.0
2015-Jul-15 04:31N 35°22' E 139°49'0 0.0
2015-Jul-15 03:31N 35°22' E 139°49'0 0.0
2015-Jul-15 02:28N 35°22' E 139°49'0 0.0
2015-Jul-15 01:28N 35°22' E 139°49'  

Dump ship's entire track history